Time;durP1;ratioP1;P1;durP2;ratioP2;P2;SDS_P1;SDS_P2;PMS_P1;PMS_P2;Temp;Humidity;BMP_temperature;BMP_pressure;BME280_temperature;BME280_humidity;BME280_pressure;Samples;Min_cycle;Max_cycle;Signal;HPM_P1;HPM_P2
2021/08/10 00:01:17;;;;;;;5.45;2.65;;;13.90;99.90;;;;;;5029861;28;20038;-77
2021/08/10 00:03:43;;;;;;;3.85;2.10;;;13.90;99.90;;;;;;5030643;28;20069;-77
2021/08/10 00:06:09;;;;;;;5.80;2.72;;;13.80;99.90;;;;;;5032201;28;20360;-76
2021/08/10 00:08:34;;;;;;;4.75;2.90;;;13.80;99.90;;;;;;5031958;28;20013;-77
2021/08/10 00:11:00;;;;;;;4.13;2.85;;;13.80;99.90;;;;;;5032389;28;20025;-77
2021/08/10 00:13:27;;;;;;;5.85;2.90;;;13.80;99.90;;;;;;5030658;28;20038;-76
2021/08/10 00:15:52;;;;;;;4.68;2.05;;;13.80;99.90;;;;;;5030107;28;20060;-75
2021/08/10 00:18:18;;;;;;;4.95;3.03;;;13.80;99.90;;;;;;5031493;28;20103;-75
2021/08/10 00:20:44;;;;;;;5.70;2.50;;;13.80;99.90;;;;;;5030564;28;20406;-76
2021/08/10 00:23:10;;;;;;;4.80;2.50;;;13.80;99.90;;;;;;5033538;28;20027;-76
2021/08/10 00:25:36;;;;;;;4.00;2.65;;;13.80;99.90;;;;;;5029917;28;20041;-76
2021/08/10 00:28:02;;;;;;;4.40;2.38;;;13.70;99.90;;;;;;5030517;28;20103;-75
2021/08/10 00:30:28;;;;;;;7.80;3.10;;;13.80;99.90;;;;;;5029432;28;20053;-75
2021/08/10 00:32:54;;;;;;;4.53;3.00;;;13.80;99.90;;;;;;5030291;28;20026;-77
2021/08/10 00:35:21;;;;;;;4.30;3.15;;;13.80;99.90;;;;;;5033126;28;20030;-76
2021/08/10 00:37:46;;;;;;;5.82;3.10;;;13.70;99.90;;;;;;5030972;28;20394;-76
2021/08/10 00:40:14;;;;;;;4.88;2.40;;;13.60;99.90;;;;;;5028921;28;20041;-77
2021/08/10 00:42:39;;;;;;;6.88;3.00;;;13.60;99.90;;;;;;5029428;28;20083;-76
2021/08/10 00:45:06;;;;;;;5.57;3.00;;;13.50;99.90;;;;;;5029442;28;20384;-77
2021/08/10 00:47:32;;;;;;;6.60;3.03;;;13.50;99.90;;;;;;5032054;28;20026;-77
2021/08/10 00:49:57;;;;;;;3.38;2.88;;;13.60;99.90;;;;;;5031357;28;20159;-77
2021/08/10 00:52:23;;;;;;;5.35;3.58;;;13.60;99.90;;;;;;5030165;28;20433;-77
2021/08/10 00:54:49;;;;;;;5.82;3.60;;;13.60;99.90;;;;;;5029158;28;20026;-76
2021/08/10 00:57:15;;;;;;;5.22;3.45;;;13.50;99.90;;;;;;5028391;28;20028;-76
2021/08/10 00:59:41;;;;;;;5.80;3.15;;;13.40;99.90;;;;;;5030205;28;20056;-76
2021/08/10 01:02:07;;;;;;;9.88;3.38;;;13.50;99.90;;;;;;5031101;28;20053;-77
2021/08/10 01:04:36;;;;;;;8.38;3.60;;;13.50;99.90;;;;;;5029467;28;20032;-76
2021/08/10 01:07:31;;;;;;;13.00;3.55;;;13.50;99.90;;;;;;5029468;28;20025;-77
2021/08/10 01:10:02;;;;;;;7.35;3.53;;;13.50;99.90;;;;;;5028507;28;20038;-76
2021/08/10 01:12:44;;;;;;;5.03;2.97;;;13.50;99.90;;;;;;5029310;28;20120;-76
2021/08/10 01:15:17;;;;;;;10.35;3.83;;;13.50;99.90;;;;;;5028717;28;20474;-76
2021/08/10 01:18:20;;;;;;;6.70;3.60;;;13.50;99.90;;;;;;5029337;28;20026;-76
2021/08/10 01:21:13;;;;;;;8.90;4.15;;;13.50;99.90;;;;;;5011743;28;20045;-76
2021/08/10 01:23:39;;;;;;;6.22;3.63;;;13.50;99.90;;;;;;5029091;28;20033;-77
2021/08/10 01:26:42;;;;;;;8.93;3.85;;;13.50;99.90;;;;;;5031471;28;20474;-77
2021/08/10 01:29:23;;;;;;;7.80;3.88;;;13.50;99.90;;;;;;5032129;28;20038;-76
2021/08/10 01:31:51;;;;;;;7.50;3.90;;;13.50;99.90;;;;;;5031586;28;20030;-76
2021/08/10 01:34:34;;;;;;;5.50;3.75;;;13.50;99.90;;;;;;5030621;28;20025;-77
2021/08/10 01:37:06;;;;;;;6.63;4.18;;;13.50;99.90;;;;;;5029152;28;20029;-76
2021/08/10 01:39:34;;;;;;;7.13;4.28;;;13.50;99.90;;;;;;5027446;28;20048;-76
2021/08/10 01:42:00;;;;;;;7.45;3.90;;;13.40;99.90;;;;;;5027142;28;20034;-76
2021/08/10 01:44:27;;;;;;;8.93;3.83;;;13.40;99.90;;;;;;5030556;28;20035;-76
2021/08/10 01:46:54;;;;;;;6.32;3.40;;;13.40;99.90;;;;;;5026986;28;20560;-76
2021/08/10 01:49:23;;;;;;;4.82;3.58;;;13.40;99.90;;;;;;5026180;28;20049;-77
2021/08/10 01:51:51;;;;;;;6.95;3.80;;;13.30;99.90;;;;;;5026580;28;20026;-76
2021/08/10 01:54:18;;;;;;;4.65;3.55;;;13.40;99.90;;;;;;5027143;28;20033;-76
2021/08/10 01:56:44;;;;;;;7.05;4.03;;;13.30;99.90;;;;;;5027273;28;20092;-76
2021/08/10 01:59:10;;;;;;;9.00;4.40;;;13.30;99.90;;;;;;5031723;28;20060;-76
2021/08/10 02:01:38;;;;;;;6.20;3.80;;;13.20;99.90;;;;;;5025905;28;20086;-76
2021/08/10 02:04:06;;;;;;;4.72;3.28;;;13.20;99.90;;;;;;5027045;28;20034;-75
2021/08/10 02:06:33;;;;;;;7.35;3.83;;;13.10;99.90;;;;;;5026750;28;20022;-75
2021/08/10 02:09:00;;;;;;;9.40;3.72;;;13.10;99.90;;;;;;5028188;28;20029;-76
2021/08/10 02:11:27;;;;;;;6.63;3.83;;;13.10;99.90;;;;;;5030013;28;20029;-76
2021/08/10 02:13:55;;;;;;;7.45;3.72;;;13.10;99.90;;;;;;5029387;28;20521;-76
2021/08/10 02:16:21;;;;;;;6.03;3.38;;;13.10;99.90;;;;;;5026793;28;20195;-76
2021/08/10 02:18:47;;;;;;;6.35;3.85;;;13.00;99.90;;;;;;5026312;28;20048;-75
2021/08/10 02:21:24;;;;;;;8.98;4.60;;;13.00;99.90;;;;;;5026825;28;20387;-75
2021/08/10 02:23:56;;;;;;;6.82;3.80;;;13.00;99.90;;;;;;5026315;28;20025;-75
2021/08/10 02:26:22;;;;;;;5.10;3.88;;;13.00;99.90;;;;;;5029428;28;20025;-76
2021/08/10 02:28:48;;;;;;;5.72;3.42;;;12.90;99.90;;;;;;5027111;28;20025;-76
2021/08/10 02:31:15;;;;;;;6.03;4.13;;;12.90;99.90;;;;;;5029021;28;20107;-76
2021/08/10 02:33:41;;;;;;;10.77;4.82;;;12.80;99.90;;;;;;5031400;28;20506;-75
2021/08/10 02:36:07;;;;;;;7.80;4.10;;;12.80;99.90;;;;;;5027274;28;20034;-77
2021/08/10 02:38:34;;;;;;;8.40;4.43;;;12.80;99.90;;;;;;5028560;28;20025;-76
2021/08/10 02:41:01;;;;;;;7.88;3.90;;;12.80;99.90;;;;;;5029352;28;20068;-77
2021/08/10 02:43:28;;;;;;;8.55;4.32;;;12.80;99.90;;;;;;5026398;28;20030;-77
2021/08/10 02:45:55;;;;;;;8.23;4.45;;;12.80;99.90;;;;;;5026468;28;20040;-76
2021/08/10 02:48:21;;;;;;;7.70;3.92;;;12.70;99.90;;;;;;5026359;28;20088;-76
2021/08/10 02:50:48;;;;;;;6.32;3.97;;;12.70;99.90;;;;;;5026932;28;20378;-76
2021/08/10 02:53:14;;;;;;;7.22;3.65;;;12.80;99.90;;;;;;5027242;28;20030;-77
2021/08/10 02:55:48;;;;;;;9.15;3.80;;;12.80;99.90;;;;;;5025399;28;20030;-77
2021/08/10 02:58:29;;;;;;;8.65;3.90;;;12.80;99.90;;;;;;5026312;28;20053;-77
2021/08/10 03:00:59;;;;;;;7.45;4.13;;;12.80;99.90;;;;;;5025883;28;20398;-76
2021/08/10 03:03:29;;;;;;;8.05;4.90;;;12.80;99.90;;;;;;5026340;28;20092;-77
2021/08/10 03:05:58;;;;;;;6.88;4.00;;;12.80;99.90;;;;;;5029851;28;20501;-76
2021/08/10 03:08:28;;;;;;;7.88;4.20;;;12.80;99.90;;;;;;5034094;28;20025;-76
2021/08/10 03:10:55;;;;;;;6.50;4.20;;;12.80;99.90;;;;;;5034456;28;20041;-76
2021/08/10 03:13:24;;;;;;;6.30;3.83;;;12.80;99.90;;;;;;5031170;28;20053;-76
2021/08/10 03:15:52;;;;;;;8.27;4.53;;;12.80;99.90;;;;;;5031367;28;20057;-76
2021/08/10 03:18:26;;;;;;;6.35;3.95;;;12.80;99.90;;;;;;5031479;28;20067;-77
2021/08/10 03:20:57;;;;;;;7.82;4.63;;;12.80;99.90;;;;;;5016539;28;20116;-76
2021/08/10 03:23:24;;;;;;;7.10;4.13;;;12.80;99.90;;;;;;5033533;28;20108;-77
2021/08/10 03:25:51;;;;;;;7.30;4.05;;;12.80;99.90;;;;;;5033426;28;20048;-76
2021/08/10 03:28:18;;;;;;;7.95;4.10;;;12.80;99.90;;;;;;5031140;28;20083;-76
2021/08/10 03:30:45;;;;;;;7.15;4.15;;;12.80;99.90;;;;;;5031261;28;20029;-76
2021/08/10 03:33:11;;;;;;;6.43;4.50;;;12.80;99.90;;;;;;5031420;28;20354;-76
2021/08/10 03:35:37;;;;;;;5.97;4.55;;;12.80;99.90;;;;;;5032750;28;20021;-76
2021/08/10 03:38:04;;;;;;;6.15;4.15;;;12.80;99.90;;;;;;5033050;28;20043;-76
2021/08/10 03:40:30;;;;;;;6.63;4.07;;;12.80;99.90;;;;;;5030753;28;20498;-76
2021/08/10 03:42:56;;;;;;;7.70;3.97;;;12.80;99.90;;;;;;5031031;28;20079;-76
2021/08/10 03:45:24;;;;;;;10.52;4.68;;;12.80;99.90;;;;;;5029395;28;20048;-76
2021/08/10 03:47:52;;;;;;;6.00;3.92;;;12.80;99.90;;;;;;5030643;28;20078;-76
2021/08/10 03:50:19;;;;;;;9.13;4.03;;;12.80;99.90;;;;;;5033938;28;20033;-76
2021/08/10 03:52:48;;;;;;;7.07;4.72;;;12.80;99.90;;;;;;5032903;28;20509;-76
2021/08/10 03:55:14;;;;;;;5.85;3.92;;;12.80;99.90;;;;;;5030392;28;20120;-76
2021/08/10 03:57:40;;;;;;;5.82;3.90;;;12.80;99.90;;;;;;5030611;28;20152;-76
2021/08/10 04:00:07;;;;;;;6.07;4.20;;;12.80;99.90;;;;;;5032132;28;20045;-77
2021/08/10 04:02:34;;;;;;;6.03;3.80;;;12.80;99.90;;;;;;5032448;28;20029;-77
2021/08/10 04:05:00;;;;;;;6.78;4.57;;;12.80;99.90;;;;;;5032649;28;20025;-76
2021/08/10 04:07:27;;;;;;;6.00;4.57;;;12.80;99.90;;;;;;5030488;28;20037;-78
2021/08/10 04:09:54;;;;;;;5.55;4.18;;;12.80;99.90;;;;;;5030604;28;20414;-77
2021/08/10 04:12:21;;;;;;;8.63;4.65;;;12.80;99.90;;;;;;5030397;28;20021;-77
2021/08/10 04:14:47;;;;;;;5.05;4.07;;;12.90;99.90;;;;;;5014909;28;20040;-76
2021/08/10 04:17:14;;;;;;;6.60;4.05;;;13.10;99.90;;;;;;5033074;28;20028;-76
2021/08/10 04:19:49;;;;;;;6.95;4.30;;;13.50;99.90;;;;;;5030055;28;20022;-76
2021/08/10 04:22:15;;;;;;;6.35;3.58;;;13.80;99.90;;;;;;5030071;28;20060;-76
2021/08/10 04:24:41;;;;;;;4.75;3.90;;;14.10;99.90;;;;;;5030399;28;20042;-76
2021/08/10 04:27:07;;;;;;;6.22;4.18;;;14.20;99.90;;;;;;5030010;28;20095;-76
2021/08/10 04:29:32;;;;;;;8.93;3.83;;;14.30;99.90;;;;;;5032513;28;20483;-76
2021/08/10 04:31:58;;;;;;;7.10;4.38;;;14.40;99.90;;;;;;5031447;28;20029;-76
2021/08/10 04:34:24;;;;;;;8.02;5.35;;;14.40;99.90;;;;;;5029459;28;20033;-76
2021/08/10 04:36:49;;;;;;;7.65;4.95;;;14.30;99.90;;;;;;5029642;28;20061;-76
2021/08/10 04:39:15;;;;;;;8.88;4.45;;;14.30;99.90;;;;;;5029467;28;20052;-76
2021/08/10 04:41:40;;;;;;;5.82;4.18;;;14.40;99.90;;;;;;5031110;28;20089;-76
2021/08/10 04:44:07;;;;;;;11.65;5.25;;;14.40;99.90;;;;;;5032447;28;20398;-77
2021/08/10 04:46:33;;;;;;;5.70;4.88;;;14.60;99.90;;;;;;5029657;28;20060;-76
2021/08/10 04:48:58;;;;;;;7.57;5.50;;;14.60;99.90;;;;;;5029722;28;20390;-77
2021/08/10 04:51:25;;;;;;;9.60;5.55;;;14.70;99.90;;;;;;5026989;28;20041;-76
2021/08/10 04:53:51;;;;;;;11.55;5.65;;;14.80;99.90;;;;;;5029847;28;20018;-77
2021/08/10 04:56:16;;;;;;;7.78;5.32;;;14.90;99.90;;;;;;5032989;28;20048;-77
2021/08/10 04:58:42;;;;;;;8.15;5.63;;;15.00;99.90;;;;;;5029351;28;20061;-76
2021/08/10 05:01:08;;;;;;;7.70;6.07;;;15.00;99.90;;;;;;5029473;28;20103;-77
2021/08/10 05:03:33;;;;;;;9.00;5.63;;;15.10;99.90;;;;;;5029174;28;20033;-76
2021/08/10 05:05:59;;;;;;;7.53;5.43;;;15.30;99.90;;;;;;5031198;28;20052;-77
2021/08/10 05:08:25;;;;;;;9.10;6.32;;;15.40;99.90;;;;;;5031921;28;20021;-77
2021/08/10 05:10:54;;;;;;;8.05;6.05;;;15.60;99.90;;;;;;5030757;28;20014;-77
2021/08/10 05:13:19;;;;;;;8.95;5.82;;;15.80;99.90;;;;;;5028927;28;20464;-77
2021/08/10 05:15:45;;;;;;;21.23;6.00;;;15.90;99.90;;;;;;5027992;28;20036;-77
2021/08/10 05:18:11;;;;;;;22.08;7.40;;;16.00;99.90;;;;;;5027559;28;20029;-77
2021/08/10 05:20:36;;;;;;;8.93;6.10;;;16.20;99.90;;;;;;5028970;28;20055;-77
2021/08/10 05:23:03;;;;;;;7.97;5.63;;;16.40;99.90;;;;;;5030867;28;20017;-77
2021/08/10 05:25:29;;;;;;;6.75;5.82;;;16.60;99.90;;;;;;5028146;28;20044;-77
2021/08/10 05:27:55;;;;;;;8.63;4.95;;;16.70;99.90;;;;;;5025993;28;20025;-76
2021/08/10 05:30:21;;;;;;;10.60;5.35;;;16.90;99.90;;;;;;5027072;28;20129;-78
2021/08/10 05:32:46;;;;;;;12.25;4.95;;;17.30;99.90;;;;;;5027748;28;20112;-76
2021/08/10 05:35:12;;;;;;;7.38;5.03;;;17.40;99.90;;;;;;5031586;28;20029;-77
2021/08/10 05:37:38;;;;;;;7.38;4.95;;;17.60;99.90;;;;;;5027489;28;20018;-76
2021/08/10 05:40:04;;;;;;;8.15;4.35;;;17.90;99.90;;;;;;5026590;28;20499;-77
2021/08/10 05:42:29;;;;;;;5.25;4.10;;;18.00;99.90;;;;;;5026606;28;20037;-76
2021/08/10 05:44:55;;;;;;;10.23;4.55;;;18.10;99.90;;;;;;5026832;28;20029;-77
2021/08/10 05:47:21;;;;;;;5.57;3.85;;;18.20;99.90;;;;;;5030092;28;20108;-77
2021/08/10 05:49:46;;;;;;;5.43;3.60;;;18.30;99.90;;;;;;5028785;28;20088;-77
2021/08/10 05:52:12;;;;;;;6.30;3.15;;;18.40;99.90;;;;;;5026877;28;20018;-77
2021/08/10 05:54:38;;;;;;;4.15;2.95;;;18.60;99.90;;;;;;5026924;28;20506;-76
2021/08/10 05:57:04;;;;;;;5.88;2.95;;;18.70;99.90;;;;;;5027043;28;20129;-77
2021/08/10 05:59:30;;;;;;;4.65;3.05;;;18.80;99.90;;;;;;5029632;28;20040;-77
2021/08/10 06:01:59;;;;;;;7.00;3.35;;;18.90;99.90;;;;;;5030434;28;20049;-77
2021/08/10 06:04:25;;;;;;;8.35;3.55;;;19.00;99.90;;;;;;5025907;28;20382;-78
2021/08/10 06:06:51;;;;;;;6.28;3.03;;;19.10;99.90;;;;;;5026685;28;20052;-78
2021/08/10 06:09:17;;;;;;;4.80;3.25;;;19.20;99.90;;;;;;5028672;28;20053;-77
2021/08/10 06:11:42;;;;;;;7.00;3.17;;;19.30;99.90;;;;;;5027694;28;20022;-77
2021/08/10 06:14:08;;;;;;;5.35;2.80;;;19.40;99.90;;;;;;5030558;28;20121;-78
2021/08/10 06:16:34;;;;;;;6.65;2.80;;;19.50;99.90;;;;;;5026425;28;20045;-78
2021/08/10 06:19:01;;;;;;;7.18;2.80;;;19.60;99.90;;;;;;5026670;28;20025;-78
2021/08/10 06:21:27;;;;;;;5.90;2.70;;;19.70;99.90;;;;;;5026601;28;20033;-78
2021/08/10 06:23:53;;;;;;;6.68;2.97;;;19.90;99.90;;;;;;5026520;28;20119;-78
2021/08/10 06:26:19;;;;;;;5.88;3.10;;;20.00;99.90;;;;;;5031024;28;20033;-77
2021/08/10 06:28:45;;;;;;;4.93;2.80;;;20.10;99.90;;;;;;5028512;28;20036;-78
2021/08/10 06:31:11;;;;;;;7.00;2.70;;;20.20;99.90;;;;;;5026697;28;20175;-78
2021/08/10 06:33:38;;;;;;;5.72;2.75;;;20.30;99.90;;;;;;5026650;28;20542;-78
2021/08/10 06:36:04;;;;;;;5.13;2.60;;;20.40;99.90;;;;;;5027121;28;20065;-77
2021/08/10 06:38:30;;;;;;;5.63;2.83;;;20.60;99.90;;;;;;5029587;28;20383;-76
2021/08/10 06:40:55;;;;;;;4.38;2.45;;;20.60;99.90;;;;;;5030479;28;20045;-77
2021/08/10 06:43:21;;;;;;;4.95;2.60;;;20.70;99.90;;;;;;5030903;28;20036;-77
2021/08/10 06:45:47;;;;;;;6.60;2.70;;;20.80;99.90;;;;;;5030102;28;20045;-77
2021/08/10 06:48:12;;;;;;;8.70;2.58;;;21.00;99.90;;;;;;5030016;28;20033;-77
2021/08/10 06:50:38;;;;;;;3.40;2.38;;;21.20;99.90;;;;;;5029696;28;20033;-76
2021/08/10 06:53:04;;;;;;;5.25;2.50;;;21.20;99.90;;;;;;5033387;28;20022;-76
2021/08/10 06:55:30;;;;;;;3.25;2.35;;;21.30;99.90;;;;;;5029055;28;20033;-75
2021/08/10 06:57:55;;;;;;;4.45;2.30;;;21.30;99.90;;;;;;5030633;28;20025;-76
2021/08/10 07:00:21;;;;;;;3.65;2.45;;;21.40;99.90;;;;;;5029450;28;20425;-76
2021/08/10 07:02:47;;;;;;;4.18;2.45;;;21.50;99.90;;;;;;5030149;28;20026;-76
2021/08/10 07:05:14;;;;;;;4.03;2.40;;;21.50;99.90;;;;;;5034730;28;20044;-75
2021/08/10 07:07:40;;;;;;;5.25;2.05;;;21.60;99.90;;;;;;5028614;28;20018;-75
2021/08/10 07:10:06;;;;;;;4.35;2.50;;;21.80;99.90;;;;;;5029478;28;20526;-75
2021/08/10 07:12:32;;;;;;;5.20;2.85;;;21.80;99.90;;;;;;5028728;28;20052;-75
2021/08/10 07:14:57;;;;;;;5.80;2.78;;;21.90;99.90;;;;;;5033393;28;20057;-75
2021/08/10 07:17:23;;;;;;;4.72;3.75;;;22.00;99.90;;;;;;5032705;28;20513;-75
2021/08/10 07:19:49;;;;;;;6.28;3.80;;;22.00;99.90;;;;;;5030457;28;20037;-75
2021/08/10 07:22:15;;;;;;;4.75;3.50;;;22.00;99.90;;;;;;5029508;28;20029;-75
2021/08/10 07:24:40;;;;;;;5.13;4.22;;;22.10;99.90;;;;;;5031985;28;20025;-77
2021/08/10 07:27:06;;;;;;;6.07;5.07;;;22.20;99.90;;;;;;5023800;28;20426;-76
2021/08/10 07:29:32;;;;;;;8.38;5.55;;;22.20;99.90;;;;;;5013743;28;20107;-76
2021/08/10 07:31:58;;;;;;;6.32;5.35;;;22.30;99.90;;;;;;5029537;28;20079;-76
2021/08/10 07:34:24;;;;;;;6.03;4.88;;;22.40;99.90;;;;;;5027033;28;21092;-76
2021/08/10 07:36:49;;;;;;;8.35;5.60;;;22.50;99.90;;;;;;5027404;28;20470;-76
2021/08/10 07:39:15;;;;;;;9.07;6.78;;;22.60;99.90;;;;;;5021052;28;20055;-77
2021/08/10 07:41:41;;;;;;;9.30;7.30;;;22.60;99.90;;;;;;5021751;28;20052;-77
2021/08/10 07:44:07;;;;;;;9.13;7.40;;;22.80;99.90;;;;;;5028972;28;20029;-77
2021/08/10 07:46:33;;;;;;;9.77;8.50;;;22.80;99.90;;;;;;5020570;28;20034;-77
2021/08/10 07:48:59;;;;;;;10.20;8.20;;;22.90;99.90;;;;;;5023708;28;20116;-76
2021/08/10 07:51:25;;;;;;;10.23;7.45;;;22.90;99.90;;;;;;5025038;28;20056;-76
2021/08/10 07:53:51;;;;;;;8.38;6.60;;;23.00;99.90;;;;;;5029737;28;20060;-76
2021/08/10 07:56:16;;;;;;;8.20;6.15;;;23.00;99.90;;;;;;5028460;28;20085;-76
2021/08/10 07:58:42;;;;;;;7.63;6.55;;;23.10;99.90;;;;;;5025079;28;20017;-77
2021/08/10 08:01:08;;;;;;;7.43;5.63;;;23.20;99.90;;;;;;5022611;28;20327;-76
2021/08/10 08:03:34;;;;;;;5.95;5.07;;;23.30;99.90;;;;;;5026886;28;20033;-77
2021/08/10 08:06:00;;;;;;;6.78;4.88;;;23.40;99.90;;;;;;5025512;28;20463;-77
2021/08/10 08:08:27;;;;;;;7.60;4.85;;;23.30;99.90;;;;;;5027936;28;20029;-78
2021/08/10 08:10:54;;;;;;;15.27;4.45;;;23.40;99.90;;;;;;5023055;28;20030;-77
2021/08/10 08:13:20;;;;;;;4.82;4.13;;;23.40;99.90;;;;;;5025983;28;20026;-77
2021/08/10 08:15:46;;;;;;;6.80;4.68;;;23.40;99.90;;;;;;5020929;28;20025;-77
2021/08/10 08:18:12;;;;;;;7.78;4.22;;;23.40;99.90;;;;;;5025263;28;20096;-77
2021/08/10 08:20:37;;;;;;;6.03;3.42;;;23.50;99.90;;;;;;5026858;28;20124;-77
2021/08/10 08:23:03;;;;;;;4.88;3.22;;;23.60;99.90;;;;;;5023841;28;20031;-78
2021/08/10 08:25:29;;;;;;;4.35;3.03;;;23.60;99.90;;;;;;5023468;28;20537;-77
2021/08/10 08:27:55;;;;;;;4.80;3.10;;;23.70;99.90;;;;;;5025811;28;20024;-77
2021/08/10 08:30:20;;;;;;;4.22;3.80;;;23.80;99.90;;;;;;5027023;28;20463;-78
2021/08/10 08:32:46;;;;;;;6.72;3.25;;;23.80;99.90;;;;;;5026508;28;20038;-76
2021/08/10 08:35:12;;;;;;;4.35;2.78;;;23.90;99.90;;;;;;5028685;28;20456;-77
2021/08/10 08:37:39;;;;;;;6.18;3.22;;;24.00;99.90;;;;;;5025452;28;20017;-77
2021/08/10 08:40:06;;;;;;;4.45;3.08;;;24.10;99.90;;;;;;5028158;28;20038;-78
2021/08/10 08:42:33;;;;;;;3.45;2.33;;;24.10;99.90;;;;;;5021714;28;20022;-76
2021/08/10 08:44:59;;;;;;;4.55;2.78;;;24.10;98.80;;;;;;5024656;28;20497;-76
2021/08/10 08:47:24;;;;;;;4.82;4.07;;;24.20;98.80;;;;;;5017641;28;20033;-75
2021/08/10 08:49:55;;;;;;;5.70;3.80;;;24.30;99.80;;;;;;5026028;28;20091;-77
2021/08/10 08:52:22;;;;;;;4.95;3.35;;;24.40;99.60;;;;;;5018906;28;20022;-76
2021/08/10 08:54:49;;;;;;;7.50;4.53;;;24.40;98.70;;;;;;5025085;28;20029;-75
2021/08/10 08:57:15;;;;;;;6.20;3.97;;;24.40;99.90;;;;;;5028855;28;20051;-75
2021/08/10 08:59:42;;;;;;;4.60;4.10;;;24.50;99.60;;;;;;5017478;28;20116;-75
2021/08/10 09:02:16;;;;;;;5.85;4.20;;;24.50;98.70;;;;;;5024248;28;20030;-77
2021/08/10 09:04:43;;;;;;;4.35;3.75;;;24.60;99.20;;;;;;5027870;28;20060;-76
2021/08/10 09:07:08;;;;;;;6.53;4.00;;;24.70;99.10;;;;;;5027017;28;20029;-76
2021/08/10 09:09:34;;;;;;;6.30;3.50;;;24.70;98.60;;;;;;5024275;28;20026;-77
2021/08/10 09:12:12;;;;;;;5.50;4.22;;;24.80;98.30;;;;;;5017352;28;20029;-76
2021/08/10 09:14:52;;;;;;;7.88;4.55;;;24.80;98.20;;;;;;5024222;28;20048;-77
2021/08/10 09:17:20;;;;;;;4.57;2.63;;;24.90;97.80;;;;;;5023174;28;20488;-77
2021/08/10 09:19:47;;;;;;;4.63;1.27;;;25.00;97.80;;;;;;5025677;28;20029;-77
2021/08/10 09:22:25;;;;;;;4.00;1.95;;;25.00;94.20;;;;;;5026922;28;20152;-77
2021/08/10 09:25:13;;;;;;;7.20;2.92;;;25.10;96.20;;;;;;5023498;28;20025;-78
2021/08/10 09:27:40;;;;;;;6.30;2.80;;;25.20;96.30;;;;;;5028714;28;20026;-77
2021/08/10 09:30:06;;;;;;;5.25;2.58;;;25.20;95.00;;;;;;5029934;28;20552;-77
2021/08/10 09:32:32;;;;;;;4.40;2.38;;;25.20;95.50;;;;;;5029038;28;20036;-78
2021/08/10 09:35:10;;;;;;;7.40;3.50;;;25.30;94.40;;;;;;5024910;28;20033;-77
2021/08/10 09:37:36;;;;;;;6.22;2.53;;;25.30;95.20;;;;;;5027042;28;20071;-76
2021/08/10 09:40:41;;;;;;;6.80;2.20;;;25.30;94.00;;;;;;5022988;28;20141;-76
2021/08/10 09:43:35;;;;;;;4.20;1.17;;;25.30;93.40;;;;;;5024927;28;20030;-75
2021/08/10 09:46:15;;;;;;;3.33;1.60;;;25.40;93.50;;;;;;5018202;28;20033;-75
2021/08/10 09:48:55;;;;;;;3.55;1.85;;;25.50;93.00;;;;;;5021107;28;20037;-75
2021/08/10 09:51:28;;;;;;;3.92;1.73;;;25.60;94.10;;;;;;5022384;28;20037;-76
2021/08/10 09:54:07;;;;;;;4.68;1.40;;;25.60;93.30;;;;;;5025968;28;20453;-75
2021/08/10 09:56:57;;;;;;;5.47;1.90;;;25.70;92.60;;;;;;5025139;28;20048;-75
2021/08/10 09:59:44;;;;;;;4.53;1.40;;;25.70;93.10;;;;;;5027446;28;20029;-75
2021/08/10 10:02:21;;;;;;;3.70;1.30;;;25.80;92.40;;;;;;5026193;28;20056;-75
2021/08/10 10:04:57;;;;;;;3.38;1.25;;;25.90;91.50;;;;;;5026640;28;20394;-75
2021/08/10 10:07:24;;;;;;;3.70;1.33;;;25.80;89.20;;;;;;5024257;28;20083;-75
2021/08/10 10:09:50;;;;;;;3.60;1.15;;;25.90;90.90;;;;;;5026516;28;20108;-75
2021/08/10 10:12:19;;;;;;;3.05;1.38;;;25.90;90.10;;;;;;5025952;28;20022;-75
2021/08/10 10:14:47;;;;;;;3.30;1.45;;;25.70;87.00;;;;;;5027807;28;20084;-75
2021/08/10 10:17:13;;;;;;;2.08;0.70;;;25.70;84.40;;;;;;5033253;28;20352;-76
2021/08/10 10:19:41;;;;;;;2.45;1.20;;;25.70;83.50;;;;;;5028307;28;20025;-76
2021/08/10 10:22:15;;;;;;;1.67;0.80;;;25.80;88.30;;;;;;5027057;28;20034;-75
2021/08/10 10:24:52;;;;;;;3.08;1.20;;;25.90;86.80;;;;;;5030491;28;20548;-75
2021/08/10 10:27:19;;;;;;;2.15;1.25;;;26.00;84.60;;;;;;5027139;28;20060;-75
2021/08/10 10:29:48;;;;;;;5.90;1.17;;;26.00;85.40;;;;;;5030584;28;20075;-76
2021/08/10 10:32:17;;;;;;;3.22;0.93;;;26.10;86.10;;;;;;5032064;28;20033;-76
2021/08/10 10:34:43;;;;;;;2.42;1.40;;;26.10;88.50;;;;;;5030874;28;20474;-76
2021/08/10 10:37:09;;;;;;;3.70;1.30;;;26.20;85.50;;;;;;5026454;28;20029;-77
2021/08/10 10:39:39;;;;;;;2.38;1.17;;;26.20;86.20;;;;;;5032198;28;20131;-77
2021/08/10 10:42:07;;;;;;;3.03;1.20;;;26.30;86.60;;;;;;5029773;28;20506;-77
2021/08/10 10:44:51;;;;;;;3.45;1.00;;;26.30;87.00;;;;;;5031269;28;20033;-77
2021/08/10 10:47:29;;;;;;;5.95;1.52;;;26.40;87.10;;;;;;5028800;28;20033;-76
2021/08/10 10:50:14;;;;;;;1.55;1.02;;;26.50;88.70;;;;;;5031815;28;20037;-77
2021/08/10 10:52:57;;;;;;;9.77;1.50;;;26.40;88.40;;;;;;5029541;28;20090;-77
2021/08/10 10:55:35;;;;;;;5.40;1.20;;;26.50;88.10;;;;;;5028964;28;20025;-77
2021/08/10 10:58:21;;;;;;;2.97;1.13;;;26.60;88.50;;;;;;5029605;28;20029;-78
2021/08/10 11:01:13;;;;;;;2.97;0.98;;;26.60;88.90;;;;;;5030003;28;20049;-77
2021/08/10 11:03:44;;;;;;;3.22;1.70;;;26.60;86.60;;;;;;5026809;28;20029;-77
2021/08/10 11:06:34;;;;;;;5.95;1.58;;;26.60;87.90;;;;;;5026449;28;20030;-76
2021/08/10 11:09:02;;;;;;;2.85;1.45;;;26.50;86.50;;;;;;5029008;28;20037;-76
2021/08/10 11:11:51;;;;;;;3.65;1.30;;;26.50;89.40;;;;;;5025602;28;20022;-76
2021/08/10 11:14:35;;;;;;;3.42;1.52;;;26.40;90.10;;;;;;5029372;28;20068;-77
2021/08/10 11:17:10;;;;;;;2.78;1.30;;;26.40;90.90;;;;;;5030199;28;20502;-77
2021/08/10 11:19:38;;;;;;;2.60;1.20;;;26.50;89.70;;;;;;5028776;28;20057;-75
2021/08/10 11:22:16;;;;;;;3.13;1.40;;;26.60;90.80;;;;;;5027979;28;20570;-76
2021/08/10 11:25:02;;;;;;;4.13;1.40;;;26.70;90.10;;;;;;5026883;28;20041;-76
2021/08/10 11:27:43;;;;;;;2.67;1.10;;;26.90;90.70;;;;;;5025926;28;20052;-76
2021/08/10 11:30:20;;;;;;;3.38;1.42;;;27.00;90.70;;;;;;5030148;28;20033;-77
2021/08/10 11:32:47;;;;;;;2.83;1.15;;;27.20;90.00;;;;;;5027775;28;20022;-77
2021/08/10 11:35:35;;;;;;;2.45;1.10;;;27.30;90.00;;;;;;5027928;28;20486;-76
2021/08/10 11:38:10;;;;;;;2.17;1.35;;;27.50;87.70;;;;;;5030570;28;20056;-77
2021/08/10 11:40:53;;;;;;;2.63;1.38;;;27.50;89.50;;;;;;5028120;28;20049;-76
2021/08/10 11:43:20;;;;;;;2.35;1.25;;;27.60;89.70;;;;;;5026617;28;20026;-77
2021/08/10 11:45:47;;;;;;;1.90;1.30;;;27.50;89.60;;;;;;5025303;28;20529;-76
2021/08/10 11:48:13;;;;;;;4.45;1.35;;;27.60;88.70;;;;;;5024179;28;20479;-77
2021/08/10 11:50:38;;;;;;;2.55;1.30;;;27.50;89.00;;;;;;5027231;28;20029;-76
2021/08/10 11:53:04;;;;;;;3.05;1.63;;;27.60;89.40;;;;;;5028275;28;20028;-77
2021/08/10 11:55:35;;;;;;;3.22;1.27;;;27.60;89.10;;;;;;5028343;28;20482;-77
2021/08/10 11:58:04;;;;;;;3.15;1.50;;;27.50;89.50;;;;;;5028172;28;20031;-77
2021/08/10 12:00:31;;;;;;;2.97;1.30;;;27.40;89.90;;;;;;5023504;28;20177;-77
2021/08/10 12:02:58;;;;;;;4.95;1.27;;;27.40;87.60;;;;;;5026946;28;20037;-76
2021/08/10 12:05:24;;;;;;;3.72;1.58;;;27.40;90.00;;;;;;5025424;28;20029;-76
2021/08/10 12:07:55;;;;;;;1.63;1.30;;;27.40;90.00;;;;;;5028920;28;20404;-77
2021/08/10 12:10:28;;;;;;;4.28;1.40;;;27.40;89.90;;;;;;5025116;28;20033;-77
2021/08/10 12:12:54;;;;;;;16.45;2.10;;;27.40;90.00;;;;;;5025916;28;20104;-76
2021/08/10 12:15:37;;;;;;;4.93;1.58;;;27.30;88.90;;;;;;5029804;28;20132;-78
2021/08/10 12:18:03;;;;;;;5.97;1.70;;;27.30;89.60;;;;;;5022621;28;20394;-77
2021/08/10 12:20:28;;;;;;;3.45;1.60;;;27.20;89.60;;;;;;5027422;28;20030;-77
2021/08/10 12:23:09;;;;;;;2.63;1.45;;;27.20;90.30;;;;;;5018034;28;20034;-77
2021/08/10 12:25:35;;;;;;;2.70;1.52;;;27.20;90.10;;;;;;5024098;28;20017;-77
2021/08/10 12:28:04;;;;;;;2.03;1.20;;;27.00;88.20;;;;;;5028755;28;20064;-76
2021/08/10 12:30:32;;;;;;;2.77;1.83;;;26.90;89.70;;;;;;5029767;28;20121;-77
2021/08/10 12:33:21;;;;;;;5.63;1.92;;;26.90;91.50;;;;;;5029560;28;20032;-80
2021/08/10 12:35:57;;;;;;;4.97;1.48;;;26.90;90.60;;;;;;5026639;28;20395;-76
2021/08/10 12:38:23;;;;;;;2.30;1.27;;;27.00;87.40;;;;;;5025058;28;20026;-77
2021/08/10 12:40:51;;;;;;;3.97;1.55;;;27.00;90.30;;;;;;5016203;28;20041;-76
2021/08/10 12:43:18;;;;;;;4.10;1.40;;;27.10;89.70;;;;;;5019400;28;20029;-76
2021/08/10 12:45:44;;;;;;;4.28;1.63;;;27.00;90.40;;;;;;5016185;28;20045;-77
2021/08/10 12:48:30;;;;;;;3.55;1.60;;;27.00;88.00;;;;;;5024874;28;20471;-76
2021/08/10 12:51:03;;;;;;;3.25;1.38;;;26.90;90.10;;;;;;5018598;28;20030;-76
2021/08/10 12:53:37;;;;;;;4.35;1.55;;;26.80;90.50;;;;;;5021510;28;20494;-76
2021/08/10 12:56:04;;;;;;;3.67;1.10;;;26.70;88.80;;;;;;5017440;28;20025;-76